Anloo, Netherlands
Current Conditions -  °F | °C
As of 11:25 PM on Monday 24 Nov 2014 (Local Time) from EHGG Reporting Station
Haze Haze  
Wind Chill: 29°   Ceiling: Unl
Heat Index: 34°   Visibility: 2.6mi
Dew Point: 34°   Wind: 6mph
Humidity: 100%   Direction: 230°SW
Pressure: 30.3"   Gusts: NA
Location:  53.04°N, 6.7°E
Report Text: EHGG 242225Z AUTO 23005KT 4200 BR NCD 01/01 Q1026
Loading
Personal Weather Stations






























Interactive Weather Map New forecast layout! Learn more

10-Day Weather Forecast

Advertisements
Track Severe Weather on mobile